sensor_id;sensor_type;location;lat;lon;timestamp;temperature;humidity
32728;DHT22;55292;51.844;19.246;2023-04-15T00:00:45;10.50;99.90
32728;DHT22;55292;51.844;19.246;2023-04-15T00:06:05;10.50;99.90
32728;DHT22;55292;51.844;19.246;2023-04-15T00:11:21;10.40;99.90
32728;DHT22;55292;51.844;19.246;2023-04-15T00:17:02;10.40;99.90
32728;DHT22;55292;51.844;19.246;2023-04-15T00:22:40;10.20;99.90
32728;DHT22;55292;51.844;19.246;2023-04-15T00:28:15;10.20;99.90
32728;DHT22;55292;51.844;19.246;2023-04-15T00:33:45;10.10;99.90
32728;DHT22;55292;51.844;19.246;2023-04-15T00:39:17;10.00;99.90
32728;DHT22;55292;51.844;19.246;2023-04-15T00:44:33;9.90;99.90
32728;DHT22;55292;51.844;19.246;2023-04-15T00:49:59;9.80;99.90
32728;DHT22;55292;51.844;19.246;2023-04-15T00:55:14;9.80;99.90
32728;DHT22;55292;51.844;19.246;2023-04-15T01:00:20;9.80;99.90
32728;DHT22;55292;51.844;19.246;2023-04-15T01:05:29;9.80;99.90
32728;DHT22;55292;51.844;19.246;2023-04-15T01:10:34;9.80;99.90
32728;DHT22;55292;51.844;19.246;2023-04-15T01:15:38;9.90;99.90
32728;DHT22;55292;51.844;19.246;2023-04-15T01:20:41;9.90;99.90
32728;DHT22;55292;51.844;19.246;2023-04-15T01:25:45;9.90;99.90
32728;DHT22;55292;51.844;19.246;2023-04-15T01:35:52;9.90;99.90
32728;DHT22;55292;51.844;19.246;2023-04-15T01:41:00;9.80;99.90
32728;DHT22;55292;51.844;19.246;2023-04-15T01:51:10;9.60;99.90
32728;DHT22;55292;51.844;19.246;2023-04-15T01:56:14;9.50;99.90
32728;DHT22;55292;51.844;19.246;2023-04-15T02:01:18;9.50;99.90
32728;DHT22;55292;51.844;19.246;2023-04-15T02:06:21;9.70;99.90
32728;DHT22;55292;51.844;19.246;2023-04-15T02:11:24;9.70;99.90
32728;DHT22;55292;51.844;19.246;2023-04-15T02:16:27;9.80;99.90
32728;DHT22;55292;51.844;19.246;2023-04-15T02:21:32;9.80;99.90
32728;DHT22;55292;51.844;19.246;2023-04-15T02:26:37;9.80;99.90
32728;DHT22;55292;51.844;19.246;2023-04-15T02:31:40;9.80;99.90
32728;DHT22;55292;51.844;19.246;2023-04-15T02:36:43;8.40;99.90
32728;DHT22;55292;51.844;19.246;2023-04-15T02:41:48;9.70;99.90
32728;DHT22;55292;51.844;19.246;2023-04-15T02:46:58;9.70;99.90
32728;DHT22;55292;51.844;19.246;2023-04-15T02:52:10;9.70;99.90
32728;DHT22;55292;51.844;19.246;2023-04-15T03:02:33;9.60;99.90
32728;DHT22;55292;51.844;19.246;2023-04-15T03:07:40;9.50;99.90
32728;DHT22;55292;51.844;19.246;2023-04-15T03:12:43;9.50;99.90
32728;DHT22;55292;51.844;19.246;2023-04-15T03:17:52;9.50;99.90
32728;DHT22;55292;51.844;19.246;2023-04-15T03:22:58;9.50;99.90
32728;DHT22;55292;51.844;19.246;2023-04-15T03:28:10;9.50;99.90
32728;DHT22;55292;51.844;19.246;2023-04-15T03:33:14;9.50;99.90
32728;DHT22;55292;51.844;19.246;2023-04-15T03:38:18;9.50;99.90
32728;DHT22;55292;51.844;19.246;2023-04-15T03:43:20;9.40;99.90
32728;DHT22;55292;51.844;19.246;2023-04-15T03:48:24;9.40;99.90
32728;DHT22;55292;51.844;19.246;2023-04-15T03:53:31;9.40;99.90
32728;DHT22;55292;51.844;19.246;2023-04-15T03:58:34;9.50;99.90
32728;DHT22;55292;51.844;19.246;2023-04-15T04:03:41;9.40;99.90
32728;DHT22;55292;51.844;19.246;2023-04-15T04:08:49;9.40;99.90
32728;DHT22;55292;51.844;19.246;2023-04-15T04:13:53;9.40;99.90
32728;DHT22;55292;51.844;19.246;2023-04-15T04:18:59;9.20;99.90
32728;DHT22;55292;51.844;19.246;2023-04-15T04:24:04;9.10;99.90
32728;DHT22;55292;51.844;19.246;2023-04-15T04:29:14;9.10;99.90
32728;DHT22;55292;51.844;19.246;2023-04-15T04:34:19;9.30;99.90
32728;DHT22;55292;51.844;19.246;2023-04-15T04:39:26;9.30;99.90
32728;DHT22;55292;51.844;19.246;2023-04-15T04:44:29;9.40;99.90
32728;DHT22;55292;51.844;19.246;2023-04-15T04:49:48;9.40;99.90
32728;DHT22;55292;51.844;19.246;2023-04-15T04:55:01;9.40;99.90
32728;DHT22;55292;51.844;19.246;2023-04-15T05:00:16;9.40;99.90
32728;DHT22;55292;51.844;19.246;2023-04-15T05:05:29;9.40;99.90
32728;DHT22;55292;51.844;19.246;2023-04-15T05:10:33;9.40;99.90
32728;DHT22;55292;51.844;19.246;2023-04-15T05:15:38;9.40;99.90
32728;DHT22;55292;51.844;19.246;2023-04-15T05:20:47;9.40;99.90
32728;DHT22;55292;51.844;19.246;2023-04-15T05:25:52;9.50;99.90
32728;DHT22;55292;51.844;19.246;2023-04-15T05:30:55;9.50;99.90
32728;DHT22;55292;51.844;19.246;2023-04-15T05:35:59;9.60;99.90
32728;DHT22;55292;51.844;19.246;2023-04-15T05:41:02;9.60;99.90
32728;DHT22;55292;51.844;19.246;2023-04-15T05:46:11;9.60;99.90
32728;DHT22;55292;51.844;19.246;2023-04-15T05:51:14;9.60;99.90
32728;DHT22;55292;51.844;19.246;2023-04-15T05:56:17;9.60;99.90
32728;DHT22;55292;51.844;19.246;2023-04-15T06:01:20;9.80;99.90
32728;DHT22;55292;51.844;19.246;2023-04-15T06:06:28;10.00;99.90
32728;DHT22;55292;51.844;19.246;2023-04-15T06:11:31;10.10;99.90
32728;DHT22;55292;51.844;19.246;2023-04-15T06:16:35;10.20;99.90
32728;DHT22;55292;51.844;19.246;2023-04-15T06:21:57;10.00;99.90
32728;DHT22;55292;51.844;19.246;2023-04-15T06:27:04;10.10;99.90
32728;DHT22;55292;51.844;19.246;2023-04-15T06:32:11;10.10;99.90
32728;DHT22;55292;51.844;19.246;2023-04-15T06:37:35;10.10;99.90
32728;DHT22;55292;51.844;19.246;2023-04-15T06:42:53;10.00;99.90
32728;DHT22;55292;51.844;19.246;2023-04-15T06:48:00;10.10;99.90
32728;DHT22;55292;51.844;19.246;2023-04-15T06:53:04;10.20;99.90
32728;DHT22;55292;51.844;19.246;2023-04-15T06:58:23;10.10;99.90
32728;DHT22;55292;51.844;19.246;2023-04-15T07:03:36;10.10;99.90
32728;DHT22;55292;51.844;19.246;2023-04-15T07:08:48;10.10;99.90
32728;DHT22;55292;51.844;19.246;2023-04-15T07:13:53;10.00;99.90
32728;DHT22;55292;51.844;19.246;2023-04-15T07:19:03;10.10;99.90
32728;DHT22;55292;51.844;19.246;2023-04-15T07:24:15;9.90;99.90
32728;DHT22;55292;51.844;19.246;2023-04-15T07:29:25;9.80;99.90
32728;DHT22;55292;51.844;19.246;2023-04-15T07:34:35;9.80;99.90
32728;DHT22;55292;51.844;19.246;2023-04-15T07:39:40;9.80;99.90
32728;DHT22;55292;51.844;19.246;2023-04-15T07:44:46;9.90;99.90
32728;DHT22;55292;51.844;19.246;2023-04-15T07:50:09;9.80;99.90
32728;DHT22;55292;51.844;19.246;2023-04-15T07:55:15;9.90;99.90
32728;DHT22;55292;51.844;19.246;2023-04-15T08:00:40;10.00;99.90
32728;DHT22;55292;51.844;19.246;2023-04-15T08:05:43;10.10;99.90
32728;DHT22;55292;51.844;19.246;2023-04-15T08:10:48;10.10;99.90
32728;DHT22;55292;51.844;19.246;2023-04-15T08:16:17;10.20;99.90
32728;DHT22;55292;51.844;19.246;2023-04-15T08:21:26;10.30;99.90
32728;DHT22;55292;51.844;19.246;2023-04-15T08:31:33;10.60;99.90
32728;DHT22;55292;51.844;19.246;2023-04-15T08:36:39;10.70;99.90
32728;DHT22;55292;51.844;19.246;2023-04-15T08:41:51;10.70;99.90
32728;DHT22;55292;51.844;19.246;2023-04-15T08:47:25;10.60;99.90
32728;DHT22;55292;51.844;19.246;2023-04-15T08:52:35;10.40;99.90
32728;DHT22;55292;51.844;19.246;2023-04-15T08:58:03;10.30;99.90
32728;DHT22;55292;51.844;19.246;2023-04-15T09:03:37;10.00;99.90
32728;DHT22;55292;51.844;19.246;2023-04-15T09:09:07;10.00;99.90
32728;DHT22;55292;51.844;19.246;2023-04-15T09:14:20;10.20;99.90
32728;DHT22;55292;51.844;19.246;2023-04-15T09:19:43;10.30;99.90
32728;DHT22;55292;51.844;19.246;2023-04-15T09:30:26;10.90;99.90
32728;DHT22;55292;51.844;19.246;2023-04-15T09:36:16;11.10;99.90
32728;DHT22;55292;51.844;19.246;2023-04-15T09:41:22;11.40;99.90
32728;DHT22;55292;51.844;19.246;2023-04-15T09:46:44;11.50;99.90
32728;DHT22;55292;51.844;19.246;2023-04-15T09:52:07;11.60;99.90
32728;DHT22;55292;51.844;19.246;2023-04-15T09:57:11;12.00;99.90
32728;DHT22;55292;51.844;19.246;2023-04-15T10:02:34;12.20;99.90
32728;DHT22;55292;51.844;19.246;2023-04-15T10:07:40;12.40;99.90
32728;DHT22;55292;51.844;19.246;2023-04-15T10:12:45;12.50;99.90
32728;DHT22;55292;51.844;19.246;2023-04-15T10:17:59;12.40;99.90
32728;DHT22;55292;51.844;19.246;2023-04-15T10:23:11;12.40;99.90
32728;DHT22;55292;51.844;19.246;2023-04-15T10:28:15;12.70;99.90
32728;DHT22;55292;51.844;19.246;2023-04-15T10:33:22;13.30;99.90
32728;DHT22;55292;51.844;19.246;2023-04-15T10:43:39;13.10;99.90
32728;DHT22;55292;51.844;19.246;2023-04-15T10:48:52;12.80;99.90
32728;DHT22;55292;51.844;19.246;2023-04-15T10:53:57;13.10;99.90
32728;DHT22;55292;51.844;19.246;2023-04-15T10:59:04;13.20;99.90
32728;DHT22;55292;51.844;19.246;2023-04-15T11:04:07;12.80;99.90
32728;DHT22;55292;51.844;19.246;2023-04-15T11:09:31;12.90;99.90
32728;DHT22;55292;51.844;19.246;2023-04-15T11:14:39;13.10;99.90
32728;DHT22;55292;51.844;19.246;2023-04-15T11:19:56;13.10;99.90
32728;DHT22;55292;51.844;19.246;2023-04-15T11:24:59;13.10;99.90
32728;DHT22;55292;51.844;19.246;2023-04-15T11:30:19;13.00;99.90
32728;DHT22;55292;51.844;19.246;2023-04-15T11:35:23;13.30;99.90
32728;DHT22;55292;51.844;19.246;2023-04-15T11:40:35;12.90;99.90
32728;DHT22;55292;51.844;19.246;2023-04-15T11:46:01;11.90;99.90
32728;DHT22;55292;51.844;19.246;2023-04-15T11:51:23;10.90;99.90
32728;DHT22;55292;51.844;19.246;2023-04-15T11:57:12;10.70;99.90
32728;DHT22;55292;51.844;19.246;2023-04-15T12:02:36;11.00;99.90
32728;DHT22;55292;51.844;19.246;2023-04-15T12:08:08;11.10;99.90
32728;DHT22;55292;51.844;19.246;2023-04-15T12:13:13;11.20;99.90
32728;DHT22;55292;51.844;19.246;2023-04-15T12:18:29;11.20;99.90
32728;DHT22;55292;51.844;19.246;2023-04-15T12:24:04;10.90;99.90
32728;DHT22;55292;51.844;19.246;2023-04-15T12:29:35;10.80;99.90
32728;DHT22;55292;51.844;19.246;2023-04-15T12:35:03;11.30;99.90
32728;DHT22;55292;51.844;19.246;2023-04-15T12:40:39;11.50;99.90
32728;DHT22;55292;51.844;19.246;2023-04-15T12:46:01;11.50;99.90
32728;DHT22;55292;51.844;19.246;2023-04-15T12:56:30;12.20;99.90
32728;DHT22;55292;51.844;19.246;2023-04-15T13:01:36;12.70;99.90
32728;DHT22;55292;51.844;19.246;2023-04-15T13:06:39;13.00;99.90
32728;DHT22;55292;51.844;19.246;2023-04-15T13:11:43;12.70;99.90
32728;DHT22;55292;51.844;19.246;2023-04-15T13:16:46;12.40;99.90
32728;DHT22;55292;51.844;19.246;2023-04-15T13:21:51;12.20;99.90
32728;DHT22;55292;51.844;19.246;2023-04-15T13:26:55;12.40;99.90
32728;DHT22;55292;51.844;19.246;2023-04-15T13:32:05;12.70;99.90
32728;DHT22;55292;51.844;19.246;2023-04-15T13:37:16;12.20;99.90
32728;DHT22;55292;51.844;19.246;2023-04-15T13:42:19;12.30;99.90
32728;DHT22;55292;51.844;19.246;2023-04-15T13:47:33;12.30;99.90
32728;DHT22;55292;51.844;19.246;2023-04-15T13:52:45;12.40;99.90
32728;DHT22;55292;51.844;19.246;2023-04-15T13:57:50;12.10;99.90
32728;DHT22;55292;51.844;19.246;2023-04-15T14:02:59;12.20;99.90
32728;DHT22;55292;51.844;19.246;2023-04-15T14:08:07;11.90;99.90
32728;DHT22;55292;51.844;19.246;2023-04-15T14:13:14;11.60;99.90
32728;DHT22;55292;51.844;19.246;2023-04-15T14:18:17;11.20;99.90
32728;DHT22;55292;51.844;19.246;2023-04-15T14:23:25;11.20;99.90
32728;DHT22;55292;51.844;19.246;2023-04-15T14:28:35;10.90;99.90
32728;DHT22;55292;51.844;19.246;2023-04-15T14:33:44;10.70;99.90
32728;DHT22;55292;51.844;19.246;2023-04-15T14:38:47;10.70;99.90
32728;DHT22;55292;51.844;19.246;2023-04-15T14:43:53;10.70;99.90
32728;DHT22;55292;51.844;19.246;2023-04-15T14:49:00;10.50;99.90
32728;DHT22;55292;51.844;19.246;2023-04-15T14:54:11;10.50;99.90
32728;DHT22;55292;51.844;19.246;2023-04-15T14:59:17;10.60;99.90
32728;DHT22;55292;51.844;19.246;2023-04-15T15:04:28;10.50;99.90
32728;DHT22;55292;51.844;19.246;2023-04-15T15:09:46;10.40;99.90
32728;DHT22;55292;51.844;19.246;2023-04-15T15:14:55;10.50;99.90
32728;DHT22;55292;51.844;19.246;2023-04-15T15:20:06;10.40;99.90
32728;DHT22;55292;51.844;19.246;2023-04-15T15:25:11;10.40;99.90
32728;DHT22;55292;51.844;19.246;2023-04-15T15:30:23;10.40;99.90
32728;DHT22;55292;51.844;19.246;2023-04-15T15:36:20;10.30;99.90
32728;DHT22;55292;51.844;19.246;2023-04-15T15:41:52;10.20;99.90
32728;DHT22;55292;51.844;19.246;2023-04-15T15:47:14;10.00;99.90
32728;DHT22;55292;51.844;19.246;2023-04-15T15:52:23;9.80;99.90
32728;DHT22;55292;51.844;19.246;2023-04-15T15:57:28;9.70;99.90
32728;DHT22;55292;51.844;19.246;2023-04-15T16:02:31;9.70;99.90
32728;DHT22;55292;51.844;19.246;2023-04-15T16:07:54;9.50;99.90
32728;DHT22;55292;51.844;19.246;2023-04-15T16:12:57;9.50;99.90
32728;DHT22;55292;51.844;19.246;2023-04-15T16:18:00;9.50;99.90
32728;DHT22;55292;51.844;19.246;2023-04-15T16:23:12;9.50;99.90
32728;DHT22;55292;51.844;19.246;2023-04-15T16:28:14;9.50;99.90
32728;DHT22;55292;51.844;19.246;2023-04-15T16:33:28;9.40;99.90
32728;DHT22;55292;51.844;19.246;2023-04-15T16:38:30;9.40;99.90
32728;DHT22;55292;51.844;19.246;2023-04-15T16:43:33;9.40;99.90
32728;DHT22;55292;51.844;19.246;2023-04-15T16:48:35;9.30;99.90
32728;DHT22;55292;51.844;19.246;2023-04-15T16:53:38;9.30;99.90
32728;DHT22;55292;51.844;19.246;2023-04-15T16:58:41;9.30;99.90
32728;DHT22;55292;51.844;19.246;2023-04-15T17:03:44;9.30;99.90
32728;DHT22;55292;51.844;19.246;2023-04-15T17:08:53;9.20;99.90
32728;DHT22;55292;51.844;19.246;2023-04-15T17:13:55;9.20;99.90
32728;DHT22;55292;51.844;19.246;2023-04-15T17:18:58;9.10;99.90
32728;DHT22;55292;51.844;19.246;2023-04-15T17:24:01;9.00;99.90
32728;DHT22;55292;51.844;19.246;2023-04-15T17:29:04;8.90;99.90
32728;DHT22;55292;51.844;19.246;2023-04-15T17:34:07;8.80;99.90
32728;DHT22;55292;51.844;19.246;2023-04-15T17:39:13;8.60;99.90
32728;DHT22;55292;51.844;19.246;2023-04-15T17:44:17;8.50;99.90
32728;DHT22;55292;51.844;19.246;2023-04-15T17:49:20;8.40;99.90
32728;DHT22;55292;51.844;19.246;2023-04-15T17:54:23;8.20;99.90
32728;DHT22;55292;51.844;19.246;2023-04-15T17:59:26;8.00;99.90
32728;DHT22;55292;51.844;19.246;2023-04-15T18:04:30;7.70;99.90
32728;DHT22;55292;51.844;19.246;2023-04-15T18:09:33;7.70;99.90
32728;DHT22;55292;51.844;19.246;2023-04-15T18:14:35;7.80;99.90
32728;DHT22;55292;51.844;19.246;2023-04-15T18:19:38;7.80;99.90
32728;DHT22;55292;51.844;19.246;2023-04-15T18:24:41;7.80;99.90
32728;DHT22;55292;51.844;19.246;2023-04-15T18:29:45;7.80;99.90
32728;DHT22;55292;51.844;19.246;2023-04-15T18:34:48;7.70;99.90
32728;DHT22;55292;51.844;19.246;2023-04-15T18:39:51;7.90;99.90
32728;DHT22;55292;51.844;19.246;2023-04-15T18:44:54;8.10;99.90
32728;DHT22;55292;51.844;19.246;2023-04-15T18:49:57;8.10;99.90
32728;DHT22;55292;51.844;19.246;2023-04-15T18:55:00;8.30;99.90
32728;DHT22;55292;51.844;19.246;2023-04-15T19:00:05;8.70;99.90
32728;DHT22;55292;51.844;19.246;2023-04-15T19:05:09;8.80;99.90
32728;DHT22;55292;51.844;19.246;2023-04-15T19:10:11;8.90;99.90
32728;DHT22;55292;51.844;19.246;2023-04-15T19:15:14;8.90;99.90
32728;DHT22;55292;51.844;19.246;2023-04-15T19:20:17;8.90;99.90
32728;DHT22;55292;51.844;19.246;2023-04-15T19:25:20;8.90;99.90
32728;DHT22;55292;51.844;19.246;2023-04-15T19:30:23;8.90;99.90
32728;DHT22;55292;51.844;19.246;2023-04-15T19:35:25;8.90;99.90
32728;DHT22;55292;51.844;19.246;2023-04-15T19:40:28;9.00;99.90
32728;DHT22;55292;51.844;19.246;2023-04-15T19:45:31;9.10;99.90
32728;DHT22;55292;51.844;19.246;2023-04-15T19:50:33;9.00;99.90
32728;DHT22;55292;51.844;19.246;2023-04-15T19:55:37;9.10;99.90
32728;DHT22;55292;51.844;19.246;2023-04-15T20:00:40;9.10;99.90
32728;DHT22;55292;51.844;19.246;2023-04-15T20:05:43;9.00;99.90
32728;DHT22;55292;51.844;19.246;2023-04-15T20:10:46;8.90;99.90
32728;DHT22;55292;51.844;19.246;2023-04-15T20:15:49;8.80;99.90
32728;DHT22;55292;51.844;19.246;2023-04-15T20:20:51;8.70;99.90
32728;DHT22;55292;51.844;19.246;2023-04-15T20:25:54;8.70;99.90
32728;DHT22;55292;51.844;19.246;2023-04-15T20:30:59;8.70;99.90
32728;DHT22;55292;51.844;19.246;2023-04-15T20:36:01;8.70;99.90
32728;DHT22;55292;51.844;19.246;2023-04-15T20:41:05;8.60;99.90
32728;DHT22;55292;51.844;19.246;2023-04-15T20:46:07;8.70;99.90
32728;DHT22;55292;51.844;19.246;2023-04-15T20:51:21;8.70;99.90
32728;DHT22;55292;51.844;19.246;2023-04-15T20:56:24;8.90;99.90
32728;DHT22;55292;51.844;19.246;2023-04-15T21:01:27;8.90;99.90
32728;DHT22;55292;51.844;19.246;2023-04-15T21:06:29;8.60;99.90
32728;DHT22;55292;51.844;19.246;2023-04-15T21:11:32;8.60;99.90
32728;DHT22;55292;51.844;19.246;2023-04-15T21:16:58;8.40;99.90
32728;DHT22;55292;51.844;19.246;2023-04-15T21:22:01;8.30;99.90
32728;DHT22;55292;51.844;19.246;2023-04-15T21:27:03;8.40;99.90
32728;DHT22;55292;51.844;19.246;2023-04-15T21:32:06;8.60;99.90
32728;DHT22;55292;51.844;19.246;2023-04-15T21:37:09;8.60;99.90
32728;DHT22;55292;51.844;19.246;2023-04-15T21:42:11;8.80;99.90
32728;DHT22;55292;51.844;19.246;2023-04-15T21:47:14;8.70;99.90
32728;DHT22;55292;51.844;19.246;2023-04-15T21:52:16;8.80;99.90
32728;DHT22;55292;51.844;19.246;2023-04-15T21:57:19;8.80;99.90
32728;DHT22;55292;51.844;19.246;2023-04-15T22:02:21;8.80;99.90
32728;DHT22;55292;51.844;19.246;2023-04-15T22:07:24;8.90;99.90
32728;DHT22;55292;51.844;19.246;2023-04-15T22:12:27;8.90;99.90
32728;DHT22;55292;51.844;19.246;2023-04-15T22:17:30;8.80;99.90
32728;DHT22;55292;51.844;19.246;2023-04-15T22:22:32;8.80;99.90
32728;DHT22;55292;51.844;19.246;2023-04-15T22:27:45;8.80;99.90
32728;DHT22;55292;51.844;19.246;2023-04-15T22:32:48;8.70;99.90
32728;DHT22;55292;51.844;19.246;2023-04-15T22:37:51;8.70;99.90
32728;DHT22;55292;51.844;19.246;2023-04-15T22:42:54;8.70;99.90
32728;DHT22;55292;51.844;19.246;2023-04-15T22:47:57;8.70;99.90
32728;DHT22;55292;51.844;19.246;2023-04-15T22:52:59;8.70;99.90
32728;DHT22;55292;51.844;19.246;2023-04-15T22:58:02;8.40;99.90
32728;DHT22;55292;51.844;19.246;2023-04-15T23:03:05;8.20;99.90
32728;DHT22;55292;51.844;19.246;2023-04-15T23:08:08;7.80;99.90
32728;DHT22;55292;51.844;19.246;2023-04-15T23:13:11;7.80;99.90
32728;DHT22;55292;51.844;19.246;2023-04-15T23:18:13;7.50;99.90
32728;DHT22;55292;51.844;19.246;2023-04-15T23:23:16;7.40;99.90
32728;DHT22;55292;51.844;19.246;2023-04-15T23:28:18;7.30;99.90
32728;DHT22;55292;51.844;19.246;2023-04-15T23:33:21;7.30;99.90
32728;DHT22;55292;51.844;19.246;2023-04-15T23:38:23;7.20;99.90
32728;DHT22;55292;51.844;19.246;2023-04-15T23:43:26;7.00;99.90
32728;DHT22;55292;51.844;19.246;2023-04-15T23:48:30;7.00;99.90
32728;DHT22;55292;51.844;19.246;2023-04-15T23:53:32;7.00;99.90
32728;DHT22;55292;51.844;19.246;2023-04-15T23:58:35;6.80;99.90
